createdAt,value
2023-05-18T00:01:41.802Z,75.31
2023-05-18T00:04:10.157Z,74.68
2023-05-18T00:06:38.027Z,75.28
2023-05-18T00:09:05.434Z,75.84
2023-05-18T00:11:33.645Z,75.63
2023-05-18T00:14:01.068Z,76.78
2023-05-18T00:16:28.511Z,75.65
2023-05-18T00:18:56.664Z,74.38
2023-05-18T00:21:30.667Z,76.61
2023-05-18T00:23:58.573Z,76.35
2023-05-18T00:26:26.763Z,76.41
2023-05-18T00:28:54.568Z,76.28
2023-05-18T00:31:22.274Z,75.43
2023-05-18T00:33:49.687Z,77.12
2023-05-18T00:36:17.482Z,77.50
2023-05-18T00:38:45.160Z,76.44
2023-05-18T00:41:12.622Z,77.92
2023-05-18T00:43:41.538Z,74.70
2023-05-18T00:46:09.276Z,76.41
2023-05-18T00:48:36.822Z,77.63
2023-05-18T00:51:05.225Z,79.19
2023-05-18T00:53:33.988Z,80.65
2023-05-18T00:56:01.407Z,80.36
2023-05-18T00:58:29.162Z,80.93
2023-05-18T01:00:58.105Z,77.92
2023-05-18T01:03:26.338Z,80.81
2023-05-18T01:05:58.179Z,82.16
2023-05-18T01:08:27.203Z,80.80
2023-05-18T01:11:05.737Z,80.80
2023-05-18T01:14:06.100Z,80.17
2023-05-18T01:17:02.049Z,81.86
2023-05-18T01:19:38.793Z,81.13
2023-05-18T01:22:12.749Z,81.65
2023-05-18T01:24:45.677Z,82.19
2023-05-18T01:27:16.620Z,79.91
2023-05-18T01:29:48.712Z,83.59
2023-05-18T01:32:24.988Z,84.73
2023-05-18T01:34:52.699Z,81.36
2023-05-18T01:37:20.182Z,82.21
2023-05-18T01:39:47.691Z,82.29
2023-05-18T01:42:21.319Z,83.64
2023-05-18T01:45:01.266Z,83.73
2023-05-18T01:47:31.941Z,85.55
2023-05-18T01:50:19.089Z,85.38
2023-05-18T01:52:52.806Z,84.12
2023-05-18T01:55:21.146Z,83.54
2023-05-18T01:57:50.053Z,83.71
2023-05-18T02:00:18.789Z,84.60
2023-05-18T02:02:47.254Z,83.89
2023-05-18T02:05:15.595Z,83.93
2023-05-18T02:07:44.248Z,82.10
2023-05-18T02:10:12.377Z,82.42
2023-05-18T02:12:39.810Z,83.21
2023-05-18T02:15:08.529Z,81.35
2023-05-18T02:17:39.091Z,81.80
2023-05-18T02:20:11.209Z,82.47
2023-05-18T02:22:39.168Z,85.67
2023-05-18T02:25:07.341Z,82.38
2023-05-18T02:27:36.083Z,84.05
2023-05-18T02:30:05.361Z,84.56
2023-05-18T02:32:32.881Z,81.79
2023-05-18T02:35:02.524Z,83.78
2023-05-18T02:37:34.429Z,82.68
2023-05-18T02:40:01.854Z,84.33
2023-05-18T02:42:30.158Z,83.00
2023-05-18T02:44:57.942Z,82.60
2023-05-18T02:47:26.008Z,83.77
2023-05-18T02:49:53.662Z,84.08
2023-05-18T02:52:21.384Z,83.36
2023-05-18T02:54:48.871Z,83.85
2023-05-18T02:57:17.172Z,84.52
2023-05-18T02:59:45.006Z,84.41
2023-05-18T03:02:14.543Z,84.33
2023-05-18T03:04:42.879Z,84.38
2023-05-18T03:07:10.699Z,84.93
2023-05-18T03:09:38.332Z,82.02
2023-05-18T03:12:06.718Z,83.54
2023-05-18T03:14:36.448Z,83.86
2023-05-18T03:17:06.074Z,84.31
2023-05-18T03:19:35.041Z,82.71
2023-05-18T03:22:03.860Z,82.13
2023-05-18T03:24:40.727Z,81.25
2023-05-18T03:27:08.982Z,84.12
2023-05-18T03:29:36.500Z,80.84
2023-05-18T03:32:04.582Z,83.09
2023-05-18T03:34:33.822Z,84.20
2023-05-18T03:37:02.016Z,85.39
2023-05-18T03:39:29.973Z,84.00
2023-05-18T03:41:57.885Z,83.19
2023-05-18T03:44:25.471Z,83.11
2023-05-18T03:46:53.272Z,84.97
2023-05-18T03:49:21.671Z,84.06
2023-05-18T03:51:49.114Z,83.78
2023-05-18T03:54:16.516Z,85.63
2023-05-18T03:56:44.288Z,83.24
2023-05-18T03:59:11.752Z,80.35
2023-05-18T04:01:42.396Z,82.20
2023-05-18T04:04:17.898Z,82.46
2023-05-18T04:06:46.813Z,83.99
2023-05-18T04:09:17.293Z,82.67
2023-05-18T04:11:45.290Z,82.04
2023-05-18T04:14:14.229Z,82.11
2023-05-18T04:16:42.124Z,83.16
2023-05-18T04:19:10.497Z,84.84
2023-05-18T04:21:38.122Z,85.38
2023-05-18T04:24:07.208Z,86.89
2023-05-18T04:26:36.716Z,85.91
2023-05-18T04:29:04.497Z,86.38
2023-05-18T04:31:32.304Z,85.81
2023-05-18T04:34:00.648Z,85.04
2023-05-18T04:36:30.593Z,84.65
2023-05-18T04:39:03.643Z,84.00
2023-05-18T04:41:34.175Z,84.45
2023-05-18T04:44:03.033Z,84.73
2023-05-18T04:46:30.811Z,84.47
2023-05-18T04:48:58.428Z,85.64
2023-05-18T04:51:26.184Z,84.21
2023-05-18T04:53:55.747Z,84.54
2023-05-18T04:56:23.177Z,84.50
2023-05-18T04:58:51.567Z,84.64
2023-05-18T05:01:19.516Z,83.91
2023-05-18T05:03:47.100Z,86.49
2023-05-18T05:06:15.952Z,81.97
2023-05-18T05:08:43.457Z,83.69
2023-05-18T05:11:10.862Z,83.67
2023-05-18T05:13:38.583Z,83.37
2023-05-18T05:16:06.429Z,82.31
2023-05-18T05:18:33.965Z,81.86
2023-05-18T05:21:01.660Z,83.17
2023-05-18T05:23:29.544Z,84.67
2023-05-18T05:25:58.089Z,84.72
2023-05-18T05:28:27.464Z,84.32
2023-05-18T05:30:54.881Z,83.70
2023-05-18T05:33:25.387Z,84.26
2023-05-18T05:35:53.270Z,83.69
2023-05-18T05:38:20.846Z,84.03
2023-05-18T05:40:48.569Z,84.37
2023-05-18T05:43:16.360Z,83.55
2023-05-18T05:45:46.031Z,82.86
2023-05-18T05:48:13.843Z,82.69
2023-05-18T05:50:41.902Z,84.74
2023-05-18T05:53:09.379Z,84.41
2023-05-18T05:55:41.279Z,83.35
2023-05-18T05:58:10.433Z,82.40
2023-05-18T06:00:37.915Z,81.44
2023-05-18T06:03:06.035Z,82.14
2023-05-18T06:05:34.363Z,80.24
2023-05-18T06:08:02.552Z,80.22
2023-05-18T06:10:31.219Z,82.44
2023-05-18T06:12:58.876Z,83.80
2023-05-18T06:15:26.625Z,79.85
2023-05-18T06:17:54.334Z,81.79
2023-05-18T06:20:22.250Z,82.41
2023-05-18T06:22:49.770Z,81.96
2023-05-18T06:25:18.323Z,81.38
2023-05-18T06:27:46.112Z,83.45
2023-05-18T06:30:13.904Z,81.69
2023-05-18T06:32:41.771Z,81.76
2023-05-18T06:35:09.700Z,84.21
2023-05-18T06:37:37.668Z,82.24
2023-05-18T06:40:07.414Z,81.39
2023-05-18T06:42:34.936Z,81.61
2023-05-18T06:45:03.670Z,82.62
2023-05-18T06:47:34.840Z,81.37
2023-05-18T06:50:02.310Z,80.56
2023-05-18T06:52:30.080Z,80.29
2023-05-18T06:54:57.810Z,82.95
2023-05-18T06:57:25.701Z,81.97
2023-05-18T06:59:53.948Z,81.53
2023-05-18T07:02:22.359Z,80.33
2023-05-18T07:04:50.311Z,79.59
2023-05-18T07:07:17.813Z,82.67
2023-05-18T07:09:45.811Z,84.00
2023-05-18T07:12:13.367Z,85.50
2023-05-18T07:14:40.858Z,81.77
2023-05-18T07:17:09.638Z,83.82
2023-05-18T07:19:37.125Z,83.20
2023-05-18T07:22:04.766Z,83.97
2023-05-18T07:24:32.516Z,82.49
2023-05-18T07:27:01.068Z,80.62
2023-05-18T07:29:29.476Z,82.80
2023-05-18T07:31:59.533Z,82.97
2023-05-18T07:34:27.340Z,81.47
2023-05-18T07:36:54.925Z,81.83
2023-05-18T07:39:28.567Z,80.38
2023-05-18T07:41:56.463Z,80.39
2023-05-18T07:44:24.598Z,78.33
2023-05-18T07:46:52.212Z,80.26
2023-05-18T07:49:19.766Z,78.95
2023-05-18T07:51:47.481Z,80.89
2023-05-18T07:54:14.900Z,80.94
2023-05-18T07:56:43.670Z,81.28
2023-05-18T07:59:11.396Z,81.84
2023-05-18T08:01:38.918Z,80.28
2023-05-18T08:04:06.723Z,80.89
2023-05-18T08:06:34.264Z,82.59
2023-05-18T08:09:01.674Z,83.92
2023-05-18T08:11:29.452Z,83.08
2023-05-18T08:13:56.825Z,80.24
2023-05-18T08:16:24.557Z,82.88
2023-05-18T08:18:52.281Z,83.66
2023-05-18T08:21:19.748Z,84.06
2023-05-18T08:23:47.187Z,82.42
2023-05-18T08:26:14.858Z,82.86
2023-05-18T08:28:42.607Z,83.22
2023-05-18T08:31:12.459Z,83.21
2023-05-18T08:33:40.471Z,80.54
2023-05-18T08:36:08.970Z,81.85
2023-05-18T08:38:36.380Z,81.85
2023-05-18T08:41:23.656Z,80.71
2023-05-18T08:43:54.920Z,81.05
2023-05-18T08:46:35.701Z,80.61
2023-05-18T08:49:05.034Z,79.70
2023-05-18T08:51:37.628Z,79.07
2023-05-18T08:54:06.223Z,81.37
2023-05-18T08:56:34.904Z,78.38
2023-05-18T08:59:05.023Z,77.10
2023-05-18T09:01:32.632Z,78.17
2023-05-18T09:04:00.983Z,78.89
2023-05-18T09:06:28.973Z,79.66
2023-05-18T09:08:59.644Z,80.54
2023-05-18T09:11:28.205Z,77.74
2023-05-18T09:13:55.749Z,80.78
2023-05-18T09:16:23.357Z,79.75
2023-05-18T09:18:51.872Z,79.35
2023-05-18T09:21:19.392Z,79.03
2023-05-18T09:23:47.594Z,74.83
2023-05-18T09:26:15.506Z,75.28
2023-05-18T09:28:43.584Z,76.32
2023-05-18T09:31:17.363Z,77.39
2023-05-18T09:33:46.150Z,80.85
2023-05-18T09:36:15.394Z,78.43
2023-05-18T09:38:46.934Z,76.28
2023-05-18T09:41:17.394Z,75.35
2023-05-18T09:43:46.427Z,75.11
2023-05-18T09:46:14.539Z,77.54
2023-05-18T09:48:45.399Z,75.49
2023-05-18T09:51:16.449Z,78.34
2023-05-18T09:53:54.376Z,76.99
2023-05-18T09:56:23.078Z,76.18
2023-05-18T09:58:51.941Z,76.22
2023-05-18T10:01:19.524Z,76.03
2023-05-18T10:03:48.571Z,77.58
2023-05-18T10:06:19.895Z,77.66
2023-05-18T10:08:47.810Z,79.36
2023-05-18T10:11:18.787Z,77.04
2023-05-18T10:13:46.934Z,76.42
2023-05-18T10:16:17.043Z,76.69
2023-05-18T10:18:45.250Z,76.75
2023-05-18T10:21:14.662Z,77.10
2023-05-18T10:23:44.293Z,75.59
2023-05-18T10:26:12.415Z,76.42
2023-05-18T10:28:49.997Z,74.54
2023-05-18T10:31:18.109Z,72.94
2023-05-18T10:33:46.284Z,71.93
2023-05-18T10:36:15.512Z,71.50
2023-05-18T10:38:45.272Z,73.84
2023-05-18T10:41:13.633Z,74.43
2023-05-18T10:43:42.203Z,73.96
2023-05-18T10:46:10.121Z,75.20
2023-05-18T10:48:41.087Z,75.99
2023-05-18T10:51:08.993Z,74.43
2023-05-18T10:53:37.040Z,76.30
2023-05-18T10:56:04.587Z,76.00
2023-05-18T10:58:32.215Z,75.99
2023-05-18T11:01:01.836Z,76.12
2023-05-18T11:03:30.254Z,75.98
2023-05-18T11:06:08.232Z,75.91
2023-05-18T11:08:51.994Z,76.59
2023-05-18T11:11:24.255Z,76.22
2023-05-18T11:13:51.952Z,75.37
2023-05-18T11:16:20.773Z,75.66
2023-05-18T11:18:50.522Z,75.44
2023-05-18T11:21:24.311Z,76.12
2023-05-18T11:24:29.239Z,76.15
2023-05-18T11:26:59.036Z,76.82
2023-05-18T11:29:35.838Z,75.28
2023-05-18T11:32:04.911Z,75.63
2023-05-18T11:34:47.618Z,77.13
2023-05-18T11:37:38.641Z,77.06
2023-05-18T11:40:13.800Z,75.78
2023-05-18T11:42:41.540Z,76.42
2023-05-18T11:45:10.211Z,76.31
2023-05-18T11:47:39.941Z,76.62
2023-05-18T11:50:09.219Z,76.77
2023-05-18T11:52:51.994Z,77.18
2023-05-18T11:55:21.015Z,73.66
2023-05-18T11:57:52.528Z,74.10
2023-05-18T12:00:21.193Z,74.94
2023-05-18T12:02:49.371Z,74.39
2023-05-18T12:05:17.301Z,75.75
2023-05-18T12:07:45.521Z,75.04
2023-05-18T12:10:14.921Z,74.63
2023-05-18T12:12:42.992Z,74.12
2023-05-18T12:15:11.725Z,76.11
2023-05-18T12:17:40.841Z,75.67
2023-05-18T12:20:15.301Z,74.67
2023-05-18T12:22:45.152Z,75.65
2023-05-18T12:25:12.824Z,75.21
2023-05-18T12:27:41.984Z,75.96
2023-05-18T12:30:16.722Z,75.77
2023-05-18T12:32:45.697Z,75.01
2023-05-18T12:35:13.326Z,75.32
2023-05-18T12:37:45.971Z,74.42
2023-05-18T12:40:15.236Z,75.03
2023-05-18T12:43:05.202Z,74.57
2023-05-18T12:45:34.086Z,74.11
2023-05-18T12:48:09.596Z,73.57
2023-05-18T12:50:46.578Z,73.41
2023-05-18T12:53:14.683Z,75.11
2023-05-18T12:55:42.273Z,74.07
2023-05-18T12:58:19.244Z,73.90
2023-05-18T13:00:48.717Z,75.32
2023-05-18T13:03:18.470Z,75.04
2023-05-18T13:06:01.718Z,73.71
2023-05-18T13:08:29.453Z,75.21
2023-05-18T13:13:29.281Z,76.56
2023-05-18T13:15:59.405Z,75.75
2023-05-18T13:18:27.959Z,76.23
2023-05-18T13:20:56.565Z,75.16
2023-05-18T13:23:27.034Z,74.72
2023-05-18T13:25:56.710Z,75.18
2023-05-18T13:28:26.772Z,75.10
2023-05-18T13:30:54.171Z,75.26
2023-05-18T13:33:21.546Z,75.13
2023-05-18T13:35:50.025Z,75.13
2023-05-18T13:38:17.522Z,75.20
2023-05-18T13:40:46.475Z,73.65
2023-05-18T13:43:14.248Z,73.85
2023-05-18T13:45:42.312Z,74.56
2023-05-18T13:48:10.752Z,75.99
2023-05-18T13:50:39.805Z,73.26
2023-05-18T13:53:07.326Z,73.84
2023-05-18T13:55:35.120Z,71.43
2023-05-18T13:58:02.785Z,73.88
2023-05-18T14:00:33.096Z,72.85
2023-05-18T14:03:01.412Z,73.72
2023-05-18T14:05:29.029Z,74.55
2023-05-18T14:07:56.879Z,73.62
2023-05-18T14:10:24.536Z,73.49
2023-05-18T14:12:51.917Z,73.15
2023-05-18T14:15:19.212Z,73.37
2023-05-18T14:17:46.819Z,74.85
2023-05-18T14:20:14.167Z,73.96
2023-05-18T14:22:42.133Z,74.50
2023-05-18T14:25:09.856Z,72.71
2023-05-18T14:27:37.191Z,73.31
2023-05-18T14:30:06.444Z,71.07
2023-05-18T14:32:34.187Z,72.37
2023-05-18T14:35:01.504Z,73.70
2023-05-18T14:37:29.396Z,71.90
2023-05-18T14:39:57.149Z,74.01
2023-05-18T14:42:24.459Z,75.50
2023-05-18T14:44:53.774Z,75.54
2023-05-18T14:47:22.483Z,75.75
2023-05-18T14:49:49.755Z,74.79
2023-05-18T14:52:17.087Z,74.81
2023-05-18T14:54:44.653Z,75.25
2023-05-18T14:57:12.849Z,75.28
2023-05-18T14:59:40.849Z,74.64
2023-05-18T15:02:08.618Z,75.47
2023-05-18T15:04:36.299Z,74.26
2023-05-18T15:07:04.735Z,75.37
2023-05-18T15:09:33.049Z,75.37
2023-05-18T15:12:03.144Z,74.83
2023-05-18T15:14:30.758Z,73.95
2023-05-18T15:16:58.865Z,74.17
2023-05-18T15:19:26.255Z,71.92
2023-05-18T15:21:53.841Z,72.93
2023-05-18T15:24:21.499Z,71.94
2023-05-18T15:26:48.894Z,72.49
2023-05-18T15:29:16.354Z,72.96
2023-05-18T15:31:45.672Z,72.74
2023-05-18T15:34:13.052Z,71.91
2023-05-18T15:36:40.307Z,70.13
2023-05-18T15:39:09.329Z,71.01
2023-05-18T15:41:36.687Z,69.83
2023-05-18T15:44:04.183Z,71.20
2023-05-18T15:46:35.264Z,72.14
2023-05-18T15:49:03.002Z,72.18
2023-05-18T15:51:31.463Z,73.02
2023-05-18T15:53:59.189Z,71.79
2023-05-18T15:56:27.462Z,72.36
2023-05-18T15:58:54.877Z,69.95
2023-05-18T16:01:23.773Z,73.42
2023-05-18T16:03:51.695Z,70.84
2023-05-18T16:06:19.016Z,71.21
2023-05-18T16:08:46.422Z,73.02
2023-05-18T16:11:14.052Z,72.84
2023-05-18T16:13:41.389Z,71.91
2023-05-18T16:16:10.421Z,72.46
2023-05-18T16:18:38.249Z,73.65
2023-05-18T16:21:05.665Z,72.78
2023-05-18T16:23:32.945Z,73.86
2023-05-18T16:26:05.068Z,74.25
2023-05-18T16:28:32.942Z,73.18
2023-05-18T16:31:01.362Z,72.52
2023-05-18T16:33:29.141Z,72.76
2023-05-18T16:36:17.089Z,72.25
2023-05-18T16:38:44.554Z,73.06
2023-05-18T16:41:12.756Z,72.85
2023-05-18T16:43:40.271Z,73.39
2023-05-18T16:46:08.255Z,72.85
2023-05-18T16:48:36.465Z,73.22
2023-05-18T16:51:06.859Z,72.92
2023-05-18T16:53:34.360Z,72.63
2023-05-18T16:56:02.349Z,73.11
2023-05-18T16:58:30.253Z,72.08
2023-05-18T17:00:57.629Z,71.60
2023-05-18T17:03:25.050Z,70.92
2023-05-18T17:05:52.709Z,71.61
2023-05-18T17:08:20.005Z,70.19
2023-05-18T17:10:47.346Z,72.02
2023-05-18T17:13:15.119Z,73.04
2023-05-18T17:15:43.070Z,72.26
2023-05-18T17:18:10.440Z,72.00
2023-05-18T17:20:37.987Z,71.78
2023-05-18T17:23:05.633Z,70.89
2023-05-18T17:25:32.979Z,70.77
2023-05-18T17:28:01.097Z,70.91
2023-05-18T17:30:28.429Z,71.03
2023-05-18T17:32:56.480Z,71.92
2023-05-18T17:35:24.109Z,71.20
2023-05-18T17:37:51.418Z,70.93
2023-05-18T17:40:19.150Z,71.43
2023-05-18T17:42:46.888Z,71.57
2023-05-18T17:45:14.190Z,71.39
2023-05-18T17:47:41.989Z,71.32
2023-05-18T17:50:09.880Z,72.15
2023-05-18T17:52:37.456Z,71.61
2023-05-18T17:55:05.576Z,71.73
2023-05-18T17:57:33.890Z,71.28
2023-05-18T18:00:02.158Z,71.82
2023-05-18T18:02:38.935Z,72.00
2023-05-18T18:05:07.786Z,72.33
2023-05-18T18:07:35.540Z,72.44
2023-05-18T18:10:03.269Z,72.36
2023-05-18T18:12:31.505Z,73.39
2023-05-18T18:15:00.068Z,72.93
2023-05-18T18:17:29.009Z,73.03
2023-05-18T18:19:57.194Z,72.10
2023-05-18T18:22:25.009Z,71.93
2023-05-18T18:24:52.400Z,72.17
2023-05-18T18:27:20.704Z,71.21
2023-05-18T18:29:49.506Z,71.27
2023-05-18T18:32:17.459Z,71.57
2023-05-18T18:34:45.366Z,70.92
2023-05-18T18:37:12.809Z,70.24
2023-05-18T18:39:40.240Z,70.14
2023-05-18T18:42:07.953Z,69.47
2023-05-18T18:44:35.845Z,69.36
2023-05-18T18:47:04.221Z,69.74
2023-05-18T18:49:32.619Z,69.05
2023-05-18T18:52:00.408Z,68.93
2023-05-18T18:54:28.690Z,69.06
2023-05-18T18:56:56.724Z,69.00
2023-05-18T18:59:24.138Z,70.27
2023-05-18T19:01:51.848Z,70.04
2023-05-18T19:04:21.039Z,69.71
2023-05-18T19:06:49.030Z,69.53
2023-05-18T19:09:17.527Z,69.54
2023-05-18T19:11:45.263Z,72.96
2023-05-18T19:14:12.924Z,70.53
2023-05-18T19:16:41.165Z,70.16
2023-05-18T19:19:09.098Z,69.82
2023-05-18T19:21:37.555Z,70.21
2023-05-18T19:24:05.375Z,70.22
2023-05-18T19:26:33.658Z,70.28
2023-05-18T19:29:01.185Z,70.90
2023-05-18T19:31:31.865Z,70.80
2023-05-18T19:34:00.414Z,70.38
2023-05-18T19:36:27.963Z,70.81
2023-05-18T19:38:55.886Z,70.66
2023-05-18T19:41:24.738Z,70.70
2023-05-18T19:43:52.440Z,70.15
2023-05-18T19:46:20.166Z,70.15
2023-05-18T19:48:48.018Z,70.50
2023-05-18T19:51:15.592Z,71.21
2023-05-18T19:53:43.444Z,70.84
2023-05-18T19:56:12.222Z,70.17
2023-05-18T19:58:39.671Z,70.25
2023-05-18T20:01:07.097Z,69.83
2023-05-18T20:03:35.210Z,70.41
2023-05-18T20:06:03.871Z,70.48
2023-05-18T20:08:31.338Z,71.08
2023-05-18T20:11:00.055Z,71.07
2023-05-18T20:13:27.551Z,70.79
2023-05-18T20:15:54.999Z,70.91
2023-05-18T20:18:23.835Z,71.25
2023-05-18T20:20:51.466Z,70.94
2023-05-18T20:23:18.917Z,71.09
2023-05-18T20:25:48.225Z,71.15
2023-05-18T20:28:16.180Z,70.93
2023-05-18T20:30:44.085Z,72.35
2023-05-18T20:33:12.593Z,70.99
2023-05-18T20:35:40.129Z,72.38
2023-05-18T20:38:07.757Z,70.86
2023-05-18T20:40:40.240Z,71.47
2023-05-18T20:43:09.984Z,74.31
2023-05-18T20:45:41.434Z,73.10
2023-05-18T20:48:09.179Z,72.64
2023-05-18T20:50:38.085Z,72.63
2023-05-18T20:53:06.136Z,72.31
2023-05-18T20:55:33.538Z,71.93
2023-05-18T20:58:02.642Z,72.60
2023-05-18T21:00:30.600Z,72.99
2023-05-18T21:02:58.167Z,72.54
2023-05-18T21:05:25.861Z,72.03
2023-05-18T21:07:53.768Z,71.46
2023-05-18T21:10:21.234Z,71.17
2023-05-18T21:12:48.740Z,70.90
2023-05-18T21:15:16.658Z,70.70
2023-05-18T21:17:44.185Z,69.47
2023-05-18T21:20:12.984Z,69.62
2023-05-18T21:22:41.093Z,69.37
2023-05-18T21:25:08.802Z,69.62
2023-05-18T21:27:37.318Z,69.87
2023-05-18T21:30:05.554Z,70.92
2023-05-18T21:32:33.163Z,70.38
2023-05-18T21:35:00.715Z,70.07
2023-05-18T21:37:29.416Z,69.88
2023-05-18T21:39:56.905Z,69.61
2023-05-18T21:42:24.360Z,69.68
2023-05-18T21:44:52.157Z,69.30
2023-05-18T21:47:19.591Z,69.68
2023-05-18T21:49:47.086Z,70.31
2023-05-18T21:52:15.576Z,70.88
2023-05-18T21:54:43.016Z,70.43
2023-05-18T21:57:10.649Z,70.47
2023-05-18T21:59:38.391Z,69.91
2023-05-18T22:02:06.826Z,71.22
2023-05-18T22:04:34.612Z,73.16
2023-05-18T22:07:02.164Z,72.66
2023-05-18T22:09:29.599Z,74.48
2023-05-18T22:11:57.601Z,73.44
2023-05-18T22:14:25.082Z,73.42
2023-05-18T22:16:52.538Z,73.35
2023-05-18T22:19:20.242Z,74.55
2023-05-18T22:21:47.690Z,74.87
2023-05-18T22:24:15.121Z,74.78
2023-05-18T22:26:43.332Z,74.26
2023-05-18T22:29:11.139Z,74.24
2023-05-18T22:31:38.670Z,74.62
2023-05-18T22:34:06.414Z,74.31
2023-05-18T22:36:35.312Z,75.67
2023-05-18T22:39:02.820Z,76.13
2023-05-18T22:41:30.665Z,74.24
2023-05-18T22:43:58.130Z,76.57
2023-05-18T22:46:25.728Z,75.41
2023-05-18T22:48:56.163Z,76.50
2023-05-18T22:51:23.697Z,76.88
2023-05-18T22:53:51.346Z,76.57
2023-05-18T22:56:20.172Z,77.72
2023-05-18T22:58:47.718Z,77.94
2023-05-18T23:01:15.219Z,78.44
2023-05-18T23:03:42.942Z,77.95
2023-05-18T23:06:10.588Z,77.43
2023-05-18T23:08:38.036Z,77.10
2023-05-18T23:11:06.025Z,76.85
2023-05-18T23:13:37.429Z,76.26
2023-05-18T23:16:05.957Z,76.53
2023-05-18T23:18:33.711Z,75.91
2023-05-18T23:21:01.317Z,75.81
2023-05-18T23:23:28.759Z,75.37
2023-05-18T23:25:57.174Z,74.98
2023-05-18T23:28:24.597Z,75.20
2023-05-18T23:30:52.067Z,74.60
2023-05-18T23:33:20.033Z,75.32
2023-05-18T23:35:48.891Z,74.38
2023-05-18T23:38:35.629Z,74.28
2023-05-18T23:41:07.262Z,73.49
2023-05-18T23:43:34.941Z,73.21
2023-05-18T23:46:03.027Z,72.96
2023-05-18T23:48:31.050Z,73.42
2023-05-18T23:51:02.388Z,72.98
2023-05-18T23:53:32.862Z,73.43
2023-05-18T23:56:00.890Z,73.00
2023-05-18T23:58:32.366Z,73.23
